Latest Weather Observations for Cerberus

IDV60901

Issued at 5:55 pm EDT Saturday 25 October 2014 (issued every 10 minutes, with the page automatically refreshed every 10 minutes)

About weather observations | Map of Melbourne area stations | Latest observations for Melbourne area | Other Formats
Station Details ID: 086361 Name: CERBERUS Lat: -38.36 Lon: 145.18 Height: 12.69 m
Data from the previous 72 hours. | See also: Recent months at Cerberus
Date/Time
EDT
Tmp

°C
App
Tmp
°C
Dew
Point
°C
Rel
Hum
%
Delta-T

°C
Wind Press
QNH
hPa
Press
MSL
hPa
Rain
since
9 am
mm
Dir
 
Spd
km/h
Gust
km/h
Spd
kts
Gust
kts
25/05:30pm 14.9 12.1 9.9 72 2.6 S 15 22 8 12 1015.4 1015.3 0.0
25/05:00pm 15.1 12.5 9.5 69 2.9 SSW 13 20 7 11 1015.4 1015.3 0.0
25/04:30pm 15.5 12.6 9.8 69 3.0 S 15 24 8 13 1015.4 1015.3 0.0
25/04:00pm 15.6 13.2 9.9 69 3.0 SSW 13 20 7 11 1015.3 1015.2 0.0
25/03:30pm 15.8 12.8 10.6 71 2.8 SSW 17 22 9 12 1015.6 1015.5 0.0
25/03:00pm 16.0 13.0 10.7 71 2.8 SSW 17 22 9 12 1015.8 1015.7 0.0
25/02:30pm 16.2 13.5 10.3 68 3.1 SSW 15 22 8 12 1016.0 1015.9 0.0
25/02:00pm 16.3 13.9 9.9 66 3.3 SSW 13 19 7 10 1016.3 1016.2 0.0
25/01:30pm 17.2 16.3 10.8 66 3.4 W 6 15 3 8 1016.3 1016.2 0.0
25/01:00pm 15.9 14.6 10.0 68 3.1 WSW 7 13 4 7 1016.6 1016.5 0.0
25/12:30pm 15.9 15.1 9.6 66 3.3 WSW 4 11 2 6 1016.9 1016.9 0.0
25/12:00pm 15.8 14.4 9.7 67 3.2 WSW 7 11 4 6 1017.2 1017.2 0.0
25/11:30am 15.4 13.6 9.5 68 3.1 S 9 17 5 9 1017.5 1017.5 0.0
25/11:00am 15.5 13.8 9.8 69 3.0 S 9 15 5 8 1017.5 1017.5 0.0
25/10:30am 15.1 13.4 9.7 70 2.8 S 9 15 5 8 1017.8 1017.8 0.0
25/10:00am 14.9 13.3 10.3 74 2.4 SSW 9 15 5 8 1017.9 1017.9 0.0
25/09:30am 14.0 13.2 11.2 83 1.5 SSW 6 9 3 5 1017.9 1017.9 0.0
25/09:00am 13.5 12.7 10.9 84 1.4 SW 6 7 3 4 1018.1 1018.1 0.0
25/08:30am 13.7 12.2 10.7 82 1.6 WSW 9 13 5 7 1018.1 1018.1 0.0
25/08:00am 13.6 12.4 10.4 81 1.7 SW 7 11 4 6 1017.9 1017.9 0.0
25/07:30am 13.4 12.4 10.4 82 1.6 W 6 6 3 3 1017.5 1017.5 0.0
25/07:00am 13.3 12.0 10.1 81 1.6 WSW 7 11 4 6 1017.3 1017.3 0.0
25/06:30am 13.5 12.3 9.7 78 1.9 WNW 6 7 3 4 1017.1 1017.1 0.0
25/06:00am 13.5 12.3 9.7 78 1.9 WNW 6 9 3 5 1016.8 1016.8 0.0
25/05:30am 13.3 12.0 9.9 80 1.7 WSW 7 15 4 8 1016.5 1016.4 0.0
25/05:00am 13.4 11.9 10.4 82 1.6 W 9 13 5 7 1016.4 1016.3 0.0
25/04:30am 13.4 11.5 10.6 83 1.5 SW 11 19 6 10 1016.3 1016.2 0.0
25/04:00am 13.8 11.8 10.2 79 1.9 WSW 11 19 6 10 1016.2 1016.1 0.0
25/03:30am 13.9 12.4 10.7 81 1.7 WSW 9 15 5 8 1016.1 1016.0 0.0
25/03:00am 13.8 12.7 10.8 82 1.6 WSW 7 15 4 8 1016.2 1016.1 0.0
25/02:30am 13.9 11.7 10.9 82 1.6 SW 13 20 7 11 1016.3 1016.2 0.0
25/02:00am 14.0 12.6 10.8 81 1.7 WSW 9 15 5 8 1016.5 1016.4 0.0
25/01:30am 14.2 12.3 10.6 79 1.9 WSW 11 17 6 9 1016.5 1016.4 0.0
25/01:00am 14.2 12.0 10.8 80 1.8 WSW 13 19 7 10 1016.6 1016.5 0.0
25/12:30am 14.3 13.0 11.3 82 1.6 WSW 9 17 5 9 1016.5 1016.4 0.0
25/12:00am 14.3 13.4 11.3 82 1.6 W 7 11 4 6 1016.4 1016.3 0.0
 
Date/Time
EDT
Tmp

°C
App
Tmp
°C
Dew
Point
°C
Rel
Hum
%
Delta-T

°C
Wind Press
QNH
hPa
Press
MSL
hPa
Rain
since
9 am
mm
Dir
 
Spd
km/h
Gust
km/h
Spd
kts
Gust
kts
24/11:30pm 14.4 13.6 11.6 83 1.5 SW 7 13 4 7 1016.4 1016.3 0.0
24/11:00pm 14.5 12.9 11.7 83 1.5 WSW 11 20 6 11 1016.0 1015.9 0.0
24/10:30pm 14.7 13.2 12.0 84 1.5 WSW 11 20 6 11 1015.9 1015.8 0.0
24/10:00pm 14.7 12.9 12.0 84 1.5 SW 13 20 7 11 1015.5 1015.4 0.0
24/09:30pm 14.5 12.7 12.0 85 1.4 SSW 13 22 7 12 1015.0 1014.9 0.0
24/09:00pm 14.5 11.9 12.0 85 1.4 SW 17 30 9 16 1014.4 1014.3 0.0
24/08:30pm 14.7 11.7 12.4 86 1.3 SSW 20 33 11 18 1013.4 1013.4 0.0
24/08:00pm 14.8 12.1 13.0 89 1.0 SSW 19 30 10 16 1013.1 1013.1 0.0
24/07:30pm 15.1 11.9 13.0 87 1.2 SW 22 35 12 19 1012.5 1012.5 0.0
24/07:00pm 17.2 14.5 13.5 79 2.1 SSW 20 30 11 16 1011.9 1011.9 0.0
24/06:30pm 18.0 15.9 13.5 75 2.5 SW 17 28 9 15 1011.0 1011.0 0.0
24/06:00pm 18.8 17.3 14.1 74 2.7 SW 15 26 8 14 1010.5 1010.5 0.0
24/05:30pm 19.4 17.1 14.6 74 2.8 SW 20 30 11 16 1010.3 1010.3 0.0
24/05:00pm 21.3 19.7 14.9 67 3.8 SSW 17 26 9 14 1009.9 1009.9 0.0
24/04:30pm 24.6 23.8 14.1 52 6.2 SSW 11 15 6 8 1009.6 1009.6 0.0
24/04:00pm 25.4 24.5 13.6 48 6.9 SSW 11 17 6 9 1009.8 1009.8 0.0
24/03:30pm 27.1 26.2 12.7 41 8.4 SSW 9 17 5 9 1009.7 1009.7 0.0
24/03:00pm 27.2 25.6 12.8 41 8.4 W 13 20 7 11 1009.9 1009.9 0.0
24/02:30pm 25.0 23.9 14.2 51 6.4 W 13 22 7 12 1010.3 1010.3 0.0
24/02:00pm 24.8 23.4 13.4 49 6.7 WNW 13 20 7 11 1010.7 1010.7 0.0
24/01:30pm 25.3 24.3 14.7 51 6.3 WNW 13 19 7 10 1010.5 1010.5 0.0
24/01:00pm 24.6 23.0 15.0 55 5.8 NW 17 24 9 13 1010.6 1010.6 0.0
24/12:30pm 24.8 24.2 15.7 57 5.5 NW 13 20 7 11 1010.8 1010.8 0.0
24/12:00pm 24.1 23.1 15.6 59 5.1 NNW 15 24 8 13 1010.9 1010.9 0.0
24/11:30am 22.4 23.1 16.2 68 3.8 ENE 7 11 4 6 1011.1 1011.1 0.0
24/11:00am 20.7 21.2 15.5 72 3.1 NE 7 11 4 6 1011.4 1011.4 0.0
24/10:30am 19.9 19.9 15.3 75 2.7 NE 9 15 5 8 1011.5 1011.5 0.0
24/10:00am 19.3 18.9 15.2 77 2.4 NE 11 19 6 10 1011.5 1011.5 0.0
24/09:30am 18.4 17.8 14.5 78 2.3 NE 11 17 6 9 1011.7 1011.7 0.0
24/09:00am 17.8 17.2 14.5 81 1.9 NE 11 20 6 11 1012.2 1012.2 0.0
24/08:30am 17.6 17.5 14.9 84 1.6 NE 9 17 5 9 1012.3 1012.3 0.0
24/08:00am 16.9 16.3 14.7 87 1.3 NE 11 19 6 10 1012.2 1012.2 0.0
24/07:30am 16.1 16.1 14.1 88 1.1 NE 7 17 4 9 1012.3 1012.3 0.0
24/07:00am 15.7 15.5 13.7 88 1.1 NE 7 13 4 7 1012.2 1012.2 0.0
24/06:30am 15.7 15.5 13.5 87 1.2 NE 7 11 4 6 1012.2 1012.2 0.0
24/06:00am 15.8 15.8 13.5 86 1.3 NE 6 11 3 6 1012.4 1012.4 0.0
24/05:30am 16.1 16.1 13.6 85 1.4 ENE 6 13 3 7 1012.5 1012.5 0.0
24/05:00am 16.3 15.8 13.8 85 1.4 ENE 9 17 5 9 1012.5 1012.5 0.0
24/04:30am 16.5 15.6 13.8 84 1.5 ENE 11 17 6 9 1012.5 1012.5 0.0
24/04:00am 16.5 15.2 13.8 84 1.5 ENE 13 19 7 10 1012.6 1012.6 0.0
24/03:30am 16.3 15.7 13.6 84 1.5 ENE 9 17 5 9 1013.1 1013.1 0.0
24/03:00am 15.9 15.8 13.2 84 1.5 ENE 6 13 3 7 1013.4 1013.4 0.0
24/02:30am 15.8 16.0 12.9 83 1.6 E 4 7 2 4 1013.9 1013.8 0.0
24/02:00am 15.8 15.6 12.9 83 1.6 E 6 9 3 5 1014.4 1014.3 0.0
24/01:30am 15.8 15.4 12.9 83 1.6 ENE 7 13 4 7 1014.8 1014.7 0.0
24/01:00am 15.6 15.1 12.7 83 1.6 ENE 7 13 4 7 1015.1 1015.0 0.0
24/12:30am 15.6 15.1 12.7 83 1.6 ENE 7 11 4 6 1015.5 1015.4 0.0
24/12:00am 15.7 15.4 12.6 82 1.7 E 6 9 3 5 1015.7 1015.6 0.0
 
Date/Time
EDT
Tmp

°C
App
Tmp
°C
Dew
Point
°C
Rel
Hum
%
Delta-T

°C
Wind Press
QNH
hPa
Press
MSL
hPa
Rain
since
9 am
mm
Dir
 
Spd
km/h
Gust
km/h
Spd
kts
Gust
kts
23/11:30pm 16.0 15.5 12.7 81 1.8 E 7 11 4 6 1016.0 1015.9 0.0
23/11:00pm 16.3 15.1 12.8 80 1.9 E 11 19 6 10 1016.3 1016.2 0.0
23/10:30pm 16.5 14.6 13.0 80 1.9 E 15 20 8 11 1016.7 1016.7 0.0
23/10:00pm 16.4 14.8 12.9 80 1.9 E 13 26 7 14 1016.9 1016.9 0.0
23/09:30pm 16.3 14.3 12.7 79 2.0 E 15 24 8 13 1017.0 1017.0 0.0
23/09:00pm 16.4 14.0 12.6 78 2.1 E 17 30 9 16 1016.8 1016.8 0.0
23/08:30pm 16.5 14.1 12.5 77 2.2 E 17 30 9 16 1016.7 1016.7 0.0
23/08:00pm 16.7 14.3 12.5 76 2.3 E 17 28 9 15 1016.6 1016.5 0.0
23/07:30pm 17.1 14.6 12.4 74 2.6 E 17 30 9 16 1016.7 1016.7 0.0
23/07:00pm 17.7 15.3 12.8 73 2.7 E 17 32 9 17 1016.7 1016.7 0.0
23/06:30pm 18.1 15.8 13.0 72 2.9 E 17 30 9 16 1016.4 1016.3 0.0
23/06:00pm 17.7 15.5 13.4 76 2.4 ESE 17 28 9 15 1016.7 1016.7 0.0
23/05:30pm 17.7 15.0 13.4 76 2.4 ESE 20 28 11 15 1016.8 1016.8 0.0
23/05:00pm 17.6 15.6 13.9 79 2.1 ESE 17 28 9 15 1016.8 1016.8 0.0
23/04:30pm 17.5 15.0 13.6 78 2.2 ESE 19 32 10 17 1016.9 1016.9 0.0
23/04:00pm 17.3 14.8 13.6 79 2.1 ESE 19 32 10 17 1017.2 1017.2 0.0
23/03:30pm 17.6 16.1 14.1 80 2.0 ESE 15 28 8 15 1017.4 1017.4 0.0
23/03:00pm 17.7 16.6 14.2 80 2.0 ESE 13 22 7 12 1017.7 1017.7 0.0
23/02:30pm 17.8 17.8 14.1 79 2.1 ESE 7 11 4 6 1018.2 1018.2 0.0
23/02:00pm 17.2 16.7 13.7 80 2.0 S 9 13 5 7 1018.6 1018.6 0.0
23/01:30pm 17.2 16.2 13.3 78 2.2 SSE 11 17 6 9 1019.0 1019.0 0.0
23/01:00pm 16.7 15.5 12.8 78 2.2 ESE 11 17 6 9 1019.4 1019.4 0.0
23/12:30pm 16.3 15.9 13.0 81 1.8 SSE 7 15 4 8 1019.7 1019.7 0.0
23/12:00pm 15.5 15.2 12.6 83 1.6 SSE 6 7 3 4 1020.2 1020.2 0.0
23/11:30am 14.9 14.4 11.9 82 1.6 ESE 6 9 3 5 1020.3 1020.3 0.0
23/11:00am 15.0 14.4 11.8 81 1.7 SE 6 9 3 5 1020.6 1020.6 0.0
23/10:30am 14.9 15.1 12.0 83 1.6 NNE 2 4 1 2 1020.8 1020.8 0.0
23/10:00am 14.9 15.2 12.2 84 1.5 SSE 2 4 1 2 1020.6 1020.6 0.0
23/09:30am 14.4 14.2 11.7 84 1.4 SSE 4 6 2 3 1020.5 1020.5 0.0
23/09:00am 14.3 13.7 11.8 85 1.3 S 6 7 3 4 1020.4 1020.4 0.0
23/08:30am 14.2 13.7 11.9 86 1.2 S 6 9 3 5 1020.5 1020.5 0.0
23/08:00am 14.1 13.5 11.8 86 1.2 WSW 6 9 3 5 1020.4 1020.4 0.0
23/07:30am 14.1 13.3 11.8 86 1.2 SSW 7 13 4 7 1020.4 1020.4 0.0
23/07:00am 14.1 13.0 11.8 86 1.2 SSW 9 15 5 8 1019.9 1019.9 0.0
23/06:30am 14.1 12.3 12.0 87 1.1 SSW 13 19 7 10 1019.6 1019.6 0.0
23/06:00am 14.0 12.5 12.0 88 1.1 SSW 11 20 6 11 1019.0 1019.0 0.0
23/05:30am 14.2 12.0 12.2 88 1.1 SSW 15 22 8 12 1018.7 1018.7 0.0
23/05:00am 14.2 12.0 12.2 88 1.1 SSW 15 22 8 12 1018.4 1018.4 0.0
23/04:30am 14.4 12.7 12.6 89 1.0 SSW 13 20 7 11 1018.2 1018.2 0.0
23/04:00am 14.5 12.6 12.9 90 0.9 SW 15 24 8 13 1018.3 1018.3 0.0
23/03:30am 14.2 13.7 12.6 90 0.9 WSW 7 11 4 6 1018.4 1018.4 0.0
23/03:00am 13.9 13.3 12.3 90 0.9 WSW 7 9 4 5 1018.5 1018.5 0.0
23/02:30am 14.0 13.5 12.2 89 1.0 WSW 6 9 3 5 1018.7 1018.7 0.0
23/02:00am 14.4 13.9 12.6 89 1.0 W 7 13 4 7 1018.5 1018.5 0.0
23/01:30am 14.8 13.6 12.8 88 1.1 WSW 11 17 6 9 1018.6 1018.6 0.0
23/01:00am 15.1 13.2 13.0 87 1.2 W 15 20 8 11 1018.7 1018.7 0.0
23/12:30am 15.7 15.9 13.0 84 1.5 NW 4 9 2 5 1017.7 1017.7 0.0
23/12:00am 15.9 15.6 13.2 84 1.5 SE 7 17 4 9 1017.3 1017.3 0.0
 
Date/Time
EDT
Tmp

°C
App
Tmp
°C
Dew
Point
°C
Rel
Hum
%
Delta-T

°C
Wind Press
QNH
hPa
Press
MSL
hPa
Rain
since
9 am
mm
Dir
 
Spd
km/h
Gust
km/h
Spd
kts
Gust
kts
22/11:30pm 15.5 13.6 13.0 85 1.4 WSW 15 24 8 13 1018.4 1018.4 0.0
22/11:00pm 15.6 14.7 12.7 83 1.6 WSW 9 15 5 8 1017.9 1017.9 0.0
22/10:30pm 15.8 13.7 12.5 81 1.8 SW 15 22 8 12 1017.4 1017.4 0.0
22/10:00pm 17.6 14.6 11.9 69 3.1 SW 19 26 10 14 1017.4 1017.4 0.0
22/09:30pm 18.8 16.7 12.3 66 3.6 SSW 15 24 8 13 1016.8 1016.8 0.0
22/09:00pm 20.1 20.0 13.3 65 3.9 SW 6 11 3 6 1016.7 1016.7 0.0
22/08:30pm 19.6 19.9 13.3 67 3.6 SSW 4 7 2 4 1015.8 1015.7 0.0
22/08:00pm 19.0 18.9 13.8 72 3.0 WSW 7 13 4 7 1015.4 1015.3 0.0
22/07:30pm 18.5 17.8 14.2 76 2.5 SW 11 17 6 9 1015.4 1015.3 0.0
22/07:00pm 19.5 18.2 13.7 69 3.3 WSW 13 17 7 9 1014.8 1014.7 0.0
22/06:47pm 22.2 19.2 12.5 54 5.5 SSW 20 28 11 15 1014.5 1014.4 0.0
22/06:30pm 27.8 27.8 13.7 42 8.4 WSW 6 7 3 4 1014.2 1014.1 0.0
22/06:00pm 28.4 28.0 12.3 37 9.4 NE 6 9 3 5 1014.2 1014.1 0.0

Latest Capital City Observations: Canberra | Sydney | Melbourne | Brisbane | Adelaide | Perth | Hobart | Darwin

Other Formats:

Comma delimited format used in spreadsheet applications
http://www.bom.gov.au/fwo/IDV60901/IDV60901.94898.axf

JavaScript Object Notation format (JSON) in row-major order
http://www.bom.gov.au/fwo/IDV60901/IDV60901.94898.json